الصفحة الرئيسية
METAR-TAF:

METAR-TAF

مطار :

مطار فا الدولي

تاهيتي, بولينسيا الفرنسية

دائرة عرض: 17-33S, خط طول: 149-37W, ارتفاع: 2 متر

مراقبة الطقس الحالي

تاريخ ووقت الإصدار 34 دقيقة قبل الساعة 13:30UTC
ريح 6 عقدة من الشرق/الشمال الشرقي
درجة الحرارة 27°درجة مئوية
الرطوبة 79%
ضغط 1013 hPa
الرؤية 10 كم أو أكثر
غيوم قليلة على ارتفاع 2300 قدم

METAR: NTAA 101330Z 07006KT 9999 FEW023 27/23 Q1013 NOSIG

زمن: 04:04 (14:04 UTC)

توقعات

تاريخ ووقت الإصدار 3ساعات و 4 دقيقة قبل الساعة 11:00UTC
التوقعات صالحة من10 الساعة 12 UTC إلى 11 الساعة 18 UTC
ريح 5 عقدةمن اتجاهات متغيرة
الرؤية 10 كم أو أكثر
غيوم قليلة على ارتفاع 2300 قدم
أصبح
من 10 الساعة 17 UTC إلى 10 الساعة 18 UTC
ريح 12 عقدة من الشرق/الشمال الشرقي

TAF: NTAA 101100Z 1012/1118 VRB05KT 9999 FEW023 BECMG 1017/1018 06012KT

أرصاد الطقس والتوقعات من أكثر من 4000 مطار (تقارير الطقس للمطار METAR والتنبؤ بالطقس بالمطارTAF).

المحطات المتاحة هي النقط الصفراء والحمراء على الخريطة.

حرك المؤشر فوق النقطة لمعرفة اسم المحطة.

ثم انقر لمعرفة أرصاد وتوقعات الطقس.

لتغيير الخارطة: اضغط على الأزرار الخضراء مع رمز الصليب الأسود للتكبير. على الزر الأخضر مع شرطة للتصغير، أو على الأسهم الخضراء للخرائط المجاورة.


METAR-TAF: